sensor_id;sensor_type;location;lat;lon;timestamp;P1;durP1;ratioP1;P2;durP2;ratioP2
20124;SDS011;10223;50.862;4.360;2024-02-16T00:01:43;4.30;;;2.07;;
20124;SDS011;10223;50.862;4.360;2024-02-16T00:04:11;4.77;;;2.10;;
20124;SDS011;10223;50.862;4.360;2024-02-16T00:06:38;3.57;;;1.80;;
20124;SDS011;10223;50.862;4.360;2024-02-16T00:09:05;3.47;;;1.90;;
20124;SDS011;10223;50.862;4.360;2024-02-16T00:11:35;4.37;;;2.13;;
20124;SDS011;10223;50.862;4.360;2024-02-16T00:14:02;4.87;;;2.17;;
20124;SDS011;10223;50.862;4.360;2024-02-16T00:16:29;3.47;;;1.97;;
20124;SDS011;10223;50.862;4.360;2024-02-16T00:18:55;3.30;;;1.80;;
20124;SDS011;10223;50.862;4.360;2024-02-16T00:21:24;4.40;;;1.80;;
20124;SDS011;10223;50.862;4.360;2024-02-16T00:23:51;4.17;;;2.27;;
20124;SDS011;10223;50.862;4.360;2024-02-16T00:26:17;3.33;;;2.13;;
20124;SDS011;10223;50.862;4.360;2024-02-16T00:28:46;5.03;;;2.10;;
20124;SDS011;10223;50.862;4.360;2024-02-16T00:31:13;4.13;;;1.70;;
20124;SDS011;10223;50.862;4.360;2024-02-16T00:33:40;4.67;;;2.10;;
20124;SDS011;10223;50.862;4.360;2024-02-16T00:36:07;5.93;;;2.10;;
20124;SDS011;10223;50.862;4.360;2024-02-16T00:38:36;3.00;;;2.00;;
20124;SDS011;10223;50.862;4.360;2024-02-16T00:41:03;3.53;;;2.03;;
20124;SDS011;10223;50.862;4.360;2024-02-16T00:43:30;3.37;;;2.03;;
20124;SDS011;10223;50.862;4.360;2024-02-16T00:45:57;4.90;;;1.97;;
20124;SDS011;10223;50.862;4.360;2024-02-16T00:48:24;3.40;;;1.80;;
20124;SDS011;10223;50.862;4.360;2024-02-16T00:50:51;4.57;;;1.93;;
20124;SDS011;10223;50.862;4.360;2024-02-16T00:53:18;5.07;;;2.37;;
20124;SDS011;10223;50.862;4.360;2024-02-16T00:55:46;4.83;;;2.27;;
20124;SDS011;10223;50.862;4.360;2024-02-16T00:58:13;5.07;;;1.90;;
20124;SDS011;10223;50.862;4.360;2024-02-16T01:00:40;3.57;;;1.97;;
20124;SDS011;10223;50.862;4.360;2024-02-16T01:03:08;6.23;;;2.10;;
20124;SDS011;10223;50.862;4.360;2024-02-16T01:05:35;4.90;;;2.07;;
20124;SDS011;10223;50.862;4.360;2024-02-16T01:08:02;4.77;;;2.23;;
20124;SDS011;10223;50.862;4.360;2024-02-16T01:10:29;3.73;;;2.20;;
20124;SDS011;10223;50.862;4.360;2024-02-16T01:12:58;3.43;;;2.23;;
20124;SDS011;10223;50.862;4.360;2024-02-16T01:15:25;3.60;;;2.00;;
20124;SDS011;10223;50.862;4.360;2024-02-16T01:17:52;3.40;;;2.10;;
20124;SDS011;10223;50.862;4.360;2024-02-16T01:20:19;2.33;;;1.70;;
20124;SDS011;10223;50.862;4.360;2024-02-16T01:22:46;3.30;;;1.90;;
20124;SDS011;10223;50.862;4.360;2024-02-16T01:25:14;3.73;;;1.90;;
20124;SDS011;10223;50.862;4.360;2024-02-16T01:27:41;3.97;;;2.10;;
20124;SDS011;10223;50.862;4.360;2024-02-16T01:30:10;3.07;;;1.93;;
20124;SDS011;10223;50.862;4.360;2024-02-16T01:32:37;4.43;;;2.33;;
20124;SDS011;10223;50.862;4.360;2024-02-16T01:35:05;3.77;;;2.00;;
20124;SDS011;10223;50.862;4.360;2024-02-16T01:37:33;5.00;;;2.30;;
20124;SDS011;10223;50.862;4.360;2024-02-16T01:40:00;3.90;;;2.00;;
20124;SDS011;10223;50.862;4.360;2024-02-16T01:42:28;3.70;;;2.17;;
20124;SDS011;10223;50.862;4.360;2024-02-16T01:44:55;5.00;;;2.20;;
20124;SDS011;10223;50.862;4.360;2024-02-16T01:47:23;4.43;;;2.40;;
20124;SDS011;10223;50.862;4.360;2024-02-16T01:49:50;5.27;;;2.37;;
20124;SDS011;10223;50.862;4.360;2024-02-16T01:52:17;5.53;;;2.30;;
20124;SDS011;10223;50.862;4.360;2024-02-16T01:54:44;3.37;;;2.13;;
20124;SDS011;10223;50.862;4.360;2024-02-16T01:57:11;4.63;;;2.20;;
20124;SDS011;10223;50.862;4.360;2024-02-16T01:59:39;4.47;;;2.47;;
20124;SDS011;10223;50.862;4.360;2024-02-16T02:02:07;6.43;;;2.07;;
20124;SDS011;10223;50.862;4.360;2024-02-16T02:04:35;6.27;;;2.30;;
20124;SDS011;10223;50.862;4.360;2024-02-16T02:07:10;4.27;;;2.50;;
20124;SDS011;10223;50.862;4.360;2024-02-16T02:09:38;4.43;;;2.43;;
20124;SDS011;10223;50.862;4.360;2024-02-16T02:12:04;5.97;;;2.53;;
20124;SDS011;10223;50.862;4.360;2024-02-16T02:14:32;4.60;;;2.07;;
20124;SDS011;10223;50.862;4.360;2024-02-16T02:16:58;4.33;;;2.00;;
20124;SDS011;10223;50.862;4.360;2024-02-16T02:19:25;6.17;;;2.30;;
20124;SDS011;10223;50.862;4.360;2024-02-16T02:21:54;4.47;;;2.30;;
20124;SDS011;10223;50.862;4.360;2024-02-16T02:24:22;5.63;;;2.20;;
20124;SDS011;10223;50.862;4.360;2024-02-16T02:26:49;5.80;;;2.27;;
20124;SDS011;10223;50.862;4.360;2024-02-16T02:29:16;4.37;;;2.40;;
20124;SDS011;10223;50.862;4.360;2024-02-16T02:31:43;8.00;;;2.50;;
20124;SDS011;10223;50.862;4.360;2024-02-16T02:34:09;3.97;;;1.77;;
20124;SDS011;10223;50.862;4.360;2024-02-16T02:36:36;5.67;;;2.17;;
20124;SDS011;10223;50.862;4.360;2024-02-16T02:39:03;4.10;;;2.13;;
20124;SDS011;10223;50.862;4.360;2024-02-16T02:41:32;8.27;;;2.17;;
20124;SDS011;10223;50.862;4.360;2024-02-16T02:43:59;3.70;;;2.13;;
20124;SDS011;10223;50.862;4.360;2024-02-16T02:46:26;4.93;;;2.03;;
20124;SDS011;10223;50.862;4.360;2024-02-16T02:48:53;5.33;;;2.07;;
20124;SDS011;10223;50.862;4.360;2024-02-16T02:51:20;7.43;;;2.33;;
20124;SDS011;10223;50.862;4.360;2024-02-16T02:53:47;3.73;;;1.97;;
20124;SDS011;10223;50.862;4.360;2024-02-16T02:56:14;4.70;;;2.53;;
20124;SDS011;10223;50.862;4.360;2024-02-16T02:58:43;4.17;;;2.40;;
20124;SDS011;10223;50.862;4.360;2024-02-16T03:01:10;6.07;;;2.40;;
20124;SDS011;10223;50.862;4.360;2024-02-16T03:03:38;6.27;;;2.40;;
20124;SDS011;10223;50.862;4.360;2024-02-16T03:06:06;4.80;;;2.10;;
20124;SDS011;10223;50.862;4.360;2024-02-16T03:08:33;7.50;;;2.47;;
20124;SDS011;10223;50.862;4.360;2024-02-16T03:11:00;5.70;;;2.10;;
20124;SDS011;10223;50.862;4.360;2024-02-16T03:13:29;4.70;;;2.90;;
20124;SDS011;10223;50.862;4.360;2024-02-16T03:15:57;7.73;;;2.27;;
20124;SDS011;10223;50.862;4.360;2024-02-16T03:18:24;5.37;;;2.50;;
20124;SDS011;10223;50.862;4.360;2024-02-16T03:20:51;5.20;;;2.30;;
20124;SDS011;10223;50.862;4.360;2024-02-16T03:23:18;5.37;;;2.60;;
20124;SDS011;10223;50.862;4.360;2024-02-16T03:25:45;4.77;;;2.50;;
20124;SDS011;10223;50.862;4.360;2024-02-16T03:28:12;6.80;;;2.90;;
20124;SDS011;10223;50.862;4.360;2024-02-16T03:30:40;6.10;;;2.70;;
20124;SDS011;10223;50.862;4.360;2024-02-16T03:33:08;5.93;;;2.40;;
20124;SDS011;10223;50.862;4.360;2024-02-16T03:35:36;4.50;;;2.40;;
20124;SDS011;10223;50.862;4.360;2024-02-16T03:38:03;4.47;;;2.53;;
20124;SDS011;10223;50.862;4.360;2024-02-16T03:40:30;6.43;;;2.30;;
20124;SDS011;10223;50.862;4.360;2024-02-16T03:42:57;4.87;;;2.00;;
20124;SDS011;10223;50.862;4.360;2024-02-16T03:45:24;6.70;;;2.53;;
20124;SDS011;10223;50.862;4.360;2024-02-16T03:47:52;5.63;;;2.53;;
20124;SDS011;10223;50.862;4.360;2024-02-16T03:50:20;3.80;;;2.30;;
20124;SDS011;10223;50.862;4.360;2024-02-16T03:52:48;7.37;;;2.17;;
20124;SDS011;10223;50.862;4.360;2024-02-16T03:55:15;3.47;;;2.00;;
20124;SDS011;10223;50.862;4.360;2024-02-16T03:57:42;5.33;;;2.00;;
20124;SDS011;10223;50.862;4.360;2024-02-16T04:00:09;4.93;;;2.37;;
20124;SDS011;10223;50.862;4.360;2024-02-16T04:02:37;5.53;;;2.80;;
20124;SDS011;10223;50.862;4.360;2024-02-16T04:05:04;7.80;;;3.20;;
20124;SDS011;10223;50.862;4.360;2024-02-16T04:07:34;5.03;;;2.50;;
20124;SDS011;10223;50.862;4.360;2024-02-16T04:10:01;7.53;;;2.50;;
20124;SDS011;10223;50.862;4.360;2024-02-16T04:12:28;5.97;;;2.43;;
20124;SDS011;10223;50.862;4.360;2024-02-16T04:14:55;6.50;;;2.90;;
20124;SDS011;10223;50.862;4.360;2024-02-16T04:17:22;5.77;;;2.33;;
20124;SDS011;10223;50.862;4.360;2024-02-16T04:19:49;9.47;;;2.83;;
20124;SDS011;10223;50.862;4.360;2024-02-16T04:22:16;10.37;;;2.67;;
20124;SDS011;10223;50.862;4.360;2024-02-16T04:24:44;5.07;;;3.00;;
20124;SDS011;10223;50.862;4.360;2024-02-16T04:27:11;5.80;;;2.43;;
20124;SDS011;10223;50.862;4.360;2024-02-16T04:29:38;7.63;;;2.80;;
20124;SDS011;10223;50.862;4.360;2024-02-16T04:32:04;4.90;;;2.37;;
20124;SDS011;10223;50.862;4.360;2024-02-16T04:34:31;5.93;;;3.00;;
20124;SDS011;10223;50.862;4.360;2024-02-16T04:36:59;7.80;;;2.50;;
20124;SDS011;10223;50.862;4.360;2024-02-16T04:39:25;5.30;;;2.53;;
20124;SDS011;10223;50.862;4.360;2024-02-16T04:41:56;4.83;;;2.40;;
20124;SDS011;10223;50.862;4.360;2024-02-16T04:44:23;11.97;;;2.73;;
20124;SDS011;10223;50.862;4.360;2024-02-16T04:46:50;4.33;;;2.50;;
20124;SDS011;10223;50.862;4.360;2024-02-16T04:49:18;6.23;;;2.30;;
20124;SDS011;10223;50.862;4.360;2024-02-16T04:51:46;6.20;;;2.63;;
20124;SDS011;10223;50.862;4.360;2024-02-16T04:54:13;5.23;;;2.80;;
20124;SDS011;10223;50.862;4.360;2024-02-16T04:56:40;8.70;;;2.70;;
20124;SDS011;10223;50.862;4.360;2024-02-16T04:59:09;5.80;;;2.60;;
20124;SDS011;10223;50.862;4.360;2024-02-16T05:01:36;7.83;;;2.47;;
20124;SDS011;10223;50.862;4.360;2024-02-16T05:04:03;6.47;;;2.60;;
20124;SDS011;10223;50.862;4.360;2024-02-16T05:06:30;5.83;;;2.50;;
20124;SDS011;10223;50.862;4.360;2024-02-16T05:08:57;6.27;;;2.73;;
20124;SDS011;10223;50.862;4.360;2024-02-16T05:11:23;8.80;;;2.80;;
20124;SDS011;10223;50.862;4.360;2024-02-16T05:13:51;6.77;;;2.73;;
20124;SDS011;10223;50.862;4.360;2024-02-16T05:16:19;6.73;;;2.70;;
20124;SDS011;10223;50.862;4.360;2024-02-16T05:18:46;6.50;;;2.43;;
20124;SDS011;10223;50.862;4.360;2024-02-16T05:21:13;5.60;;;2.53;;
20124;SDS011;10223;50.862;4.360;2024-02-16T05:23:40;6.77;;;3.00;;
20124;SDS011;10223;50.862;4.360;2024-02-16T05:26:06;6.10;;;2.63;;
20124;SDS011;10223;50.862;4.360;2024-02-16T05:28:33;10.03;;;2.70;;
20124;SDS011;10223;50.862;4.360;2024-02-16T05:31:04;8.17;;;3.23;;
20124;SDS011;10223;50.862;4.360;2024-02-16T05:33:42;6.37;;;2.73;;
20124;SDS011;10223;50.862;4.360;2024-02-16T05:36:09;6.73;;;2.57;;
20124;SDS011;10223;50.862;4.360;2024-02-16T05:38:37;6.10;;;2.47;;
20124;SDS011;10223;50.862;4.360;2024-02-16T05:41:08;7.90;;;2.70;;
20124;SDS011;10223;50.862;4.360;2024-02-16T05:43:36;8.07;;;3.20;;
20124;SDS011;10223;50.862;4.360;2024-02-16T05:46:03;7.33;;;2.90;;
20124;SDS011;10223;50.862;4.360;2024-02-16T05:48:31;6.10;;;3.17;;
20124;SDS011;10223;50.862;4.360;2024-02-16T05:51:01;6.90;;;2.70;;
20124;SDS011;10223;50.862;4.360;2024-02-16T05:53:28;8.80;;;3.30;;
20124;SDS011;10223;50.862;4.360;2024-02-16T05:55:55;13.30;;;3.70;;
20124;SDS011;10223;50.862;4.360;2024-02-16T05:58:23;9.70;;;3.37;;
20124;SDS011;10223;50.862;4.360;2024-02-16T06:00:50;8.90;;;3.00;;
20124;SDS011;10223;50.862;4.360;2024-02-16T06:03:17;8.17;;;3.00;;
20124;SDS011;10223;50.862;4.360;2024-02-16T06:05:44;9.07;;;3.13;;
20124;SDS011;10223;50.862;4.360;2024-02-16T06:08:13;5.03;;;3.00;;
20124;SDS011;10223;50.862;4.360;2024-02-16T06:10:40;9.70;;;3.47;;
20124;SDS011;10223;50.862;4.360;2024-02-16T06:13:07;8.70;;;2.80;;
20124;SDS011;10223;50.862;4.360;2024-02-16T06:15:34;11.20;;;3.60;;
20124;SDS011;10223;50.862;4.360;2024-02-16T06:18:02;9.67;;;3.20;;
20124;SDS011;10223;50.862;4.360;2024-02-16T06:20:29;7.87;;;3.37;;
20124;SDS011;10223;50.862;4.360;2024-02-16T06:22:56;9.33;;;3.17;;
20124;SDS011;10223;50.862;4.360;2024-02-16T06:25:24;8.10;;;3.40;;
20124;SDS011;10223;50.862;4.360;2024-02-16T06:27:51;9.03;;;3.60;;
20124;SDS011;10223;50.862;4.360;2024-02-16T06:30:18;10.33;;;3.70;;
20124;SDS011;10223;50.862;4.360;2024-02-16T06:32:45;6.40;;;3.53;;
20124;SDS011;10223;50.862;4.360;2024-02-16T06:35:12;6.80;;;3.67;;
20124;SDS011;10223;50.862;4.360;2024-02-16T06:37:39;13.30;;;4.37;;
20124;SDS011;10223;50.862;4.360;2024-02-16T06:40:07;9.00;;;3.93;;
20124;SDS011;10223;50.862;4.360;2024-02-16T06:42:37;9.20;;;4.00;;
20124;SDS011;10223;50.862;4.360;2024-02-16T06:45:07;13.33;;;3.67;;
20124;SDS011;10223;50.862;4.360;2024-02-16T06:47:34;9.93;;;3.90;;
20124;SDS011;10223;50.862;4.360;2024-02-16T06:50:01;9.53;;;3.97;;
20124;SDS011;10223;50.862;4.360;2024-02-16T06:52:28;10.67;;;4.53;;
20124;SDS011;10223;50.862;4.360;2024-02-16T06:54:55;8.67;;;3.33;;
20124;SDS011;10223;50.862;4.360;2024-02-16T06:57:22;7.90;;;3.93;;
20124;SDS011;10223;50.862;4.360;2024-02-16T06:59:51;9.73;;;4.33;;
20124;SDS011;10223;50.862;4.360;2024-02-16T07:02:19;11.47;;;4.77;;
20124;SDS011;10223;50.862;4.360;2024-02-16T07:04:45;12.10;;;4.27;;
20124;SDS011;10223;50.862;4.360;2024-02-16T07:07:13;9.40;;;4.67;;
20124;SDS011;10223;50.862;4.360;2024-02-16T07:09:39;13.00;;;4.70;;
20124;SDS011;10223;50.862;4.360;2024-02-16T07:12:07;12.43;;;4.40;;
20124;SDS011;10223;50.862;4.360;2024-02-16T07:14:34;9.57;;;4.20;;
20124;SDS011;10223;50.862;4.360;2024-02-16T07:17:02;12.00;;;4.70;;
20124;SDS011;10223;50.862;4.360;2024-02-16T07:19:32;8.83;;;4.27;;
20124;SDS011;10223;50.862;4.360;2024-02-16T07:21:59;9.20;;;4.33;;
20124;SDS011;10223;50.862;4.360;2024-02-16T07:24:26;11.50;;;4.05;;
20124;SDS011;10223;50.862;4.360;2024-02-16T07:26:53;13.50;;;4.80;;
20124;SDS011;10223;50.862;4.360;2024-02-16T07:29:23;12.90;;;4.93;;
20124;SDS011;10223;50.862;4.360;2024-02-16T07:31:50;11.90;;;4.63;;
20124;SDS011;10223;50.862;4.360;2024-02-16T07:34:19;12.13;;;4.47;;
20124;SDS011;10223;50.862;4.360;2024-02-16T07:36:45;8.93;;;4.57;;
20124;SDS011;10223;50.862;4.360;2024-02-16T07:39:12;10.47;;;5.20;;
20124;SDS011;10223;50.862;4.360;2024-02-16T07:41:39;14.07;;;5.00;;
20124;SDS011;10223;50.862;4.360;2024-02-16T07:44:06;13.00;;;5.27;;
20124;SDS011;10223;50.862;4.360;2024-02-16T07:46:33;13.13;;;4.90;;
20124;SDS011;10223;50.862;4.360;2024-02-16T07:49:06;14.93;;;5.77;;
20124;SDS011;10223;50.862;4.360;2024-02-16T07:51:37;11.33;;;5.10;;
20124;SDS011;10223;50.862;4.360;2024-02-16T07:54:04;10.07;;;4.47;;
20124;SDS011;10223;50.862;4.360;2024-02-16T07:56:33;12.33;;;5.17;;
20124;SDS011;10223;50.862;4.360;2024-02-16T07:58:59;12.70;;;5.33;;
20124;SDS011;10223;50.862;4.360;2024-02-16T08:01:26;12.63;;;5.50;;
20124;SDS011;10223;50.862;4.360;2024-02-16T08:03:54;13.50;;;5.57;;
20124;SDS011;10223;50.862;4.360;2024-02-16T08:06:24;12.77;;;5.47;;
20124;SDS011;10223;50.862;4.360;2024-02-16T08:08:53;11.63;;;5.23;;
20124;SDS011;10223;50.862;4.360;2024-02-16T08:11:20;17.43;;;6.00;;
20124;SDS011;10223;50.862;4.360;2024-02-16T08:13:47;15.07;;;5.73;;
20124;SDS011;10223;50.862;4.360;2024-02-16T08:16:14;14.97;;;4.93;;
20124;SDS011;10223;50.862;4.360;2024-02-16T08:18:43;18.40;;;4.87;;
20124;SDS011;10223;50.862;4.360;2024-02-16T08:21:10;17.07;;;6.00;;
20124;SDS011;10223;50.862;4.360;2024-02-16T08:23:37;15.30;;;5.70;;
20124;SDS011;10223;50.862;4.360;2024-02-16T08:26:05;15.77;;;5.93;;
20124;SDS011;10223;50.862;4.360;2024-02-16T08:28:32;13.70;;;6.00;;
20124;SDS011;10223;50.862;4.360;2024-02-16T08:30:59;17.03;;;5.93;;
20124;SDS011;10223;50.862;4.360;2024-02-16T08:33:26;18.20;;;7.10;;
20124;SDS011;10223;50.862;4.360;2024-02-16T08:35:53;16.53;;;5.70;;
20124;SDS011;10223;50.862;4.360;2024-02-16T08:38:20;13.43;;;5.23;;
20124;SDS011;10223;50.862;4.360;2024-02-16T08:40:47;13.00;;;5.10;;
20124;SDS011;10223;50.862;4.360;2024-02-16T08:43:18;9.57;;;4.93;;
20124;SDS011;10223;50.862;4.360;2024-02-16T08:45:45;13.10;;;5.87;;
20124;SDS011;10223;50.862;4.360;2024-02-16T08:48:13;9.07;;;4.63;;
20124;SDS011;10223;50.862;4.360;2024-02-16T08:50:40;14.17;;;5.87;;
20124;SDS011;10223;50.862;4.360;2024-02-16T08:53:07;17.47;;;5.50;;
20124;SDS011;10223;50.862;4.360;2024-02-16T08:55:35;15.63;;;5.87;;
20124;SDS011;10223;50.862;4.360;2024-02-16T08:58:02;17.87;;;6.43;;
20124;SDS011;10223;50.862;4.360;2024-02-16T09:00:30;22.40;;;7.17;;
20124;SDS011;10223;50.862;4.360;2024-02-16T09:02:57;10.37;;;5.27;;
20124;SDS011;10223;50.862;4.360;2024-02-16T09:05:27;20.30;;;6.83;;
20124;SDS011;10223;50.862;4.360;2024-02-16T09:07:54;12.83;;;6.10;;
20124;SDS011;10223;50.862;4.360;2024-02-16T09:10:22;11.97;;;5.43;;
20124;SDS011;10223;50.862;4.360;2024-02-16T09:12:49;19.50;;;6.47;;
20124;SDS011;10223;50.862;4.360;2024-02-16T09:15:17;16.73;;;6.63;;
20124;SDS011;10223;50.862;4.360;2024-02-16T09:17:45;12.80;;;5.60;;
20124;SDS011;10223;50.862;4.360;2024-02-16T09:20:12;16.83;;;6.63;;
20124;SDS011;10223;50.862;4.360;2024-02-16T09:22:40;15.40;;;6.23;;
20124;SDS011;10223;50.862;4.360;2024-02-16T09:25:07;16.17;;;6.30;;
20124;SDS011;10223;50.862;4.360;2024-02-16T09:27:34;17.37;;;6.40;;
20124;SDS011;10223;50.862;4.360;2024-02-16T09:30:05;12.60;;;5.70;;
20124;SDS011;10223;50.862;4.360;2024-02-16T09:32:35;17.60;;;6.73;;
20124;SDS011;10223;50.862;4.360;2024-02-16T09:35:04;27.30;;;6.83;;
20124;SDS011;10223;50.862;4.360;2024-02-16T09:37:31;13.87;;;5.70;;
20124;SDS011;10223;50.862;4.360;2024-02-16T09:39:58;14.07;;;5.90;;
20124;SDS011;10223;50.862;4.360;2024-02-16T09:42:25;14.73;;;6.20;;
20124;SDS011;10223;50.862;4.360;2024-02-16T09:44:52;19.00;;;6.33;;
20124;SDS011;10223;50.862;4.360;2024-02-16T09:47:21;16.30;;;6.20;;
20124;SDS011;10223;50.862;4.360;2024-02-16T09:49:51;12.80;;;5.70;;
20124;SDS011;10223;50.862;4.360;2024-02-16T09:52:19;14.33;;;5.13;;
20124;SDS011;10223;50.862;4.360;2024-02-16T09:54:46;10.03;;;5.40;;
20124;SDS011;10223;50.862;4.360;2024-02-16T09:57:16;14.33;;;5.93;;
20124;SDS011;10223;50.862;4.360;2024-02-16T09:59:43;12.00;;;5.40;;
20124;SDS011;10223;50.862;4.360;2024-02-16T10:02:10;13.13;;;5.47;;
20124;SDS011;10223;50.862;4.360;2024-02-16T10:04:37;10.80;;;5.40;;
20124;SDS011;10223;50.862;4.360;2024-02-16T10:07:04;9.70;;;5.40;;
20124;SDS011;10223;50.862;4.360;2024-02-16T10:09:33;11.33;;;4.90;;
20124;SDS011;10223;50.862;4.360;2024-02-16T10:12:00;13.97;;;5.40;;
20124;SDS011;10223;50.862;4.360;2024-02-16T10:14:27;17.23;;;6.30;;
20124;SDS011;10223;50.862;4.360;2024-02-16T10:16:59;10.67;;;5.17;;
20124;SDS011;10223;50.862;4.360;2024-02-16T10:19:28;14.27;;;6.20;;
20124;SDS011;10223;50.862;4.360;2024-02-16T10:22:08;20.23;;;6.03;;
20124;SDS011;10223;50.862;4.360;2024-02-16T10:24:36;16.37;;;6.10;;
20124;SDS011;10223;50.862;4.360;2024-02-16T10:27:04;15.30;;;7.10;;
20124;SDS011;10223;50.862;4.360;2024-02-16T10:29:32;18.27;;;6.50;;
20124;SDS011;10223;50.862;4.360;2024-02-16T10:32:00;15.10;;;6.00;;
20124;SDS011;10223;50.862;4.360;2024-02-16T10:34:27;21.83;;;6.27;;
20124;SDS011;10223;50.862;4.360;2024-02-16T10:36:55;15.13;;;6.80;;
20124;SDS011;10223;50.862;4.360;2024-02-16T10:39:25;13.93;;;6.03;;
20124;SDS011;10223;50.862;4.360;2024-02-16T10:41:53;14.07;;;6.27;;
20124;SDS011;10223;50.862;4.360;2024-02-16T10:44:22;11.47;;;6.27;;
20124;SDS011;10223;50.862;4.360;2024-02-16T10:46:49;16.47;;;5.80;;
20124;SDS011;10223;50.862;4.360;2024-02-16T10:49:17;13.10;;;6.10;;
20124;SDS011;10223;50.862;4.360;2024-02-16T10:51:45;18.70;;;6.73;;
20124;SDS011;10223;50.862;4.360;2024-02-16T10:54:15;15.90;;;6.70;;
20124;SDS011;10223;50.862;4.360;2024-02-16T10:56:45;14.30;;;7.00;;
20124;SDS011;10223;50.862;4.360;2024-02-16T10:59:13;20.03;;;7.63;;
20124;SDS011;10223;50.862;4.360;2024-02-16T11:01:43;21.10;;;7.33;;
20124;SDS011;10223;50.862;4.360;2024-02-16T11:04:11;16.80;;;7.23;;
20124;SDS011;10223;50.862;4.360;2024-02-16T11:06:46;14.93;;;7.70;;
20124;SDS011;10223;50.862;4.360;2024-02-16T11:09:25;22.33;;;7.40;;
20124;SDS011;10223;50.862;4.360;2024-02-16T11:11:53;24.03;;;7.23;;
20124;SDS011;10223;50.862;4.360;2024-02-16T11:14:22;17.73;;;7.77;;
20124;SDS011;10223;50.862;4.360;2024-02-16T11:16:53;19.57;;;7.90;;
20124;SDS011;10223;50.862;4.360;2024-02-16T11:19:21;18.30;;;7.87;;
20124;SDS011;10223;50.862;4.360;2024-02-16T11:21:58;17.47;;;7.87;;
20124;SDS011;10223;50.862;4.360;2024-02-16T11:24:29;13.50;;;7.80;;
20124;SDS011;10223;50.862;4.360;2024-02-16T11:26:57;16.70;;;8.23;;
20124;SDS011;10223;50.862;4.360;2024-02-16T11:29:27;18.93;;;8.37;;
20124;SDS011;10223;50.862;4.360;2024-02-16T11:31:57;17.93;;;8.30;;
20124;SDS011;10223;50.862;4.360;2024-02-16T11:34:25;18.27;;;8.50;;
20124;SDS011;10223;50.862;4.360;2024-02-16T11:36:52;16.77;;;8.90;;
20124;SDS011;10223;50.862;4.360;2024-02-16T11:39:20;18.53;;;8.67;;
20124;SDS011;10223;50.862;4.360;2024-02-16T11:41:47;17.80;;;9.30;;
20124;SDS011;10223;50.862;4.360;2024-02-16T11:44:14;15.67;;;9.27;;
20124;SDS011;10223;50.862;4.360;2024-02-16T11:46:43;25.00;;;9.77;;
20124;SDS011;10223;50.862;4.360;2024-02-16T11:49:10;17.80;;;9.30;;
20124;SDS011;10223;50.862;4.360;2024-02-16T11:51:37;17.13;;;9.10;;
20124;SDS011;10223;50.862;4.360;2024-02-16T11:54:05;45.70;;;23.03;;
20124;SDS011;10223;50.862;4.360;2024-02-16T11:56:32;14.40;;;8.43;;
20124;SDS011;10223;50.862;4.360;2024-02-16T11:58:59;15.23;;;9.03;;
20124;SDS011;10223;50.862;4.360;2024-02-16T12:01:27;16.83;;;8.50;;
20124;SDS011;10223;50.862;4.360;2024-02-16T12:04:00;16.27;;;8.90;;
20124;SDS011;10223;50.862;4.360;2024-02-16T12:06:28;18.67;;;8.67;;
20124;SDS011;10223;50.862;4.360;2024-02-16T12:08:56;13.27;;;8.40;;
20124;SDS011;10223;50.862;4.360;2024-02-16T12:11:23;11.77;;;7.07;;
20124;SDS011;10223;50.862;4.360;2024-02-16T12:13:50;12.43;;;6.73;;
20124;SDS011;10223;50.862;4.360;2024-02-16T12:16:18;9.00;;;6.43;;
20124;SDS011;10223;50.862;4.360;2024-02-16T12:18:45;9.30;;;6.00;;
20124;SDS011;10223;50.862;4.360;2024-02-16T12:21:17;15.03;;;7.73;;
20124;SDS011;10223;50.862;4.360;2024-02-16T12:23:45;10.73;;;5.63;;
20124;SDS011;10223;50.862;4.360;2024-02-16T12:26:12;13.03;;;6.30;;
20124;SDS011;10223;50.862;4.360;2024-02-16T12:28:40;9.90;;;6.17;;
20124;SDS011;10223;50.862;4.360;2024-02-16T12:31:07;8.83;;;5.70;;
20124;SDS011;10223;50.862;4.360;2024-02-16T12:33:34;11.03;;;6.43;;
20124;SDS011;10223;50.862;4.360;2024-02-16T12:36:01;8.77;;;5.83;;
20124;SDS011;10223;50.862;4.360;2024-02-16T12:38:30;11.07;;;5.70;;
20124;SDS011;10223;50.862;4.360;2024-02-16T12:40:57;8.47;;;5.90;;
20124;SDS011;10223;50.862;4.360;2024-02-16T12:43:25;10.57;;;6.33;;
20124;SDS011;10223;50.862;4.360;2024-02-16T12:45:51;10.43;;;6.33;;
20124;SDS011;10223;50.862;4.360;2024-02-16T12:48:18;10.40;;;6.17;;
20124;SDS011;10223;50.862;4.360;2024-02-16T12:50:45;11.07;;;6.30;;
20124;SDS011;10223;50.862;4.360;2024-02-16T12:53:14;10.60;;;6.20;;
20124;SDS011;10223;50.862;4.360;2024-02-16T12:55:43;10.50;;;6.77;;
20124;SDS011;10223;50.862;4.360;2024-02-16T12:58:10;10.93;;;6.40;;
20124;SDS011;10223;50.862;4.360;2024-02-16T13:00:37;14.70;;;7.37;;
20124;SDS011;10223;50.862;4.360;2024-02-16T13:03:04;9.97;;;6.87;;
20124;SDS011;10223;50.862;4.360;2024-02-16T13:05:32;10.67;;;6.50;;
20124;SDS011;10223;50.862;4.360;2024-02-16T13:07:59;9.10;;;6.87;;
20124;SDS011;10223;50.862;4.360;2024-02-16T13:10:26;14.53;;;7.90;;
20124;SDS011;10223;50.862;4.360;2024-02-16T13:12:54;11.00;;;7.07;;
20124;SDS011;10223;50.862;4.360;2024-02-16T13:15:21;11.50;;;7.50;;
20124;SDS011;10223;50.862;4.360;2024-02-16T13:17:48;12.37;;;8.13;;
20124;SDS011;10223;50.862;4.360;2024-02-16T13:20:15;12.33;;;7.03;;
20124;SDS011;10223;50.862;4.360;2024-02-16T13:22:41;10.97;;;6.87;;
20124;SDS011;10223;50.862;4.360;2024-02-16T13:25:09;12.20;;;7.63;;
20124;SDS011;10223;50.862;4.360;2024-02-16T13:27:36;10.50;;;7.40;;
20124;SDS011;10223;50.862;4.360;2024-02-16T13:30:05;9.50;;;6.40;;
20124;SDS011;10223;50.862;4.360;2024-02-16T13:32:32;9.17;;;6.23;;
20124;SDS011;10223;50.862;4.360;2024-02-16T13:35:04;10.67;;;5.87;;
20124;SDS011;10223;50.862;4.360;2024-02-16T13:37:31;15.60;;;6.27;;
20124;SDS011;10223;50.862;4.360;2024-02-16T13:39:58;9.30;;;6.30;;
20124;SDS011;10223;50.862;4.360;2024-02-16T13:42:25;11.70;;;6.10;;
20124;SDS011;10223;50.862;4.360;2024-02-16T13:44:53;9.57;;;6.63;;
20124;SDS011;10223;50.862;4.360;2024-02-16T13:47:21;10.13;;;7.13;;
20124;SDS011;10223;50.862;4.360;2024-02-16T13:49:49;8.57;;;6.70;;
20124;SDS011;10223;50.862;4.360;2024-02-16T13:52:17;10.80;;;6.83;;
20124;SDS011;10223;50.862;4.360;2024-02-16T13:54:44;11.10;;;7.63;;
20124;SDS011;10223;50.862;4.360;2024-02-16T13:57:11;13.87;;;7.37;;
20124;SDS011;10223;50.862;4.360;2024-02-16T13:59:38;10.17;;;6.30;;
20124;SDS011;10223;50.862;4.360;2024-02-16T14:02:06;7.57;;;5.67;;
20124;SDS011;10223;50.862;4.360;2024-02-16T14:04:35;6.57;;;4.90;;
20124;SDS011;10223;50.862;4.360;2024-02-16T14:07:03;9.57;;;6.00;;
20124;SDS011;10223;50.862;4.360;2024-02-16T14:09:30;6.67;;;4.47;;
20124;SDS011;10223;50.862;4.360;2024-02-16T14:11:57;9.87;;;4.23;;
20124;SDS011;10223;50.862;4.360;2024-02-16T14:14:25;5.47;;;3.60;;
20124;SDS011;10223;50.862;4.360;2024-02-16T14:16:52;7.97;;;3.87;;
20124;SDS011;10223;50.862;4.360;2024-02-16T14:19:20;5.43;;;3.03;;
20124;SDS011;10223;50.862;4.360;2024-02-16T14:21:48;4.67;;;2.70;;
20124;SDS011;10223;50.862;4.360;2024-02-16T14:24:15;4.47;;;3.20;;
20124;SDS011;10223;50.862;4.360;2024-02-16T14:26:43;3.83;;;3.10;;
20124;SDS011;10223;50.862;4.360;2024-02-16T14:29:11;6.27;;;2.83;;
20124;SDS011;10223;50.862;4.360;2024-02-16T14:31:38;9.17;;;3.73;;
20124;SDS011;10223;50.862;4.360;2024-02-16T14:34:05;5.13;;;2.60;;
20124;SDS011;10223;50.862;4.360;2024-02-16T14:36:32;11.47;;;4.30;;
20124;SDS011;10223;50.862;4.360;2024-02-16T14:39:00;5.30;;;2.63;;
20124;SDS011;10223;50.862;4.360;2024-02-16T14:41:28;17.37;;;4.50;;
20124;SDS011;10223;50.862;4.360;2024-02-16T14:43:54;7.13;;;3.10;;